Wednesday, October 17, 2018, 3:29 AM EDT
Back to Local

KMIV, Millville Municipal Airport

Location: Millville, NJ, United States Lat: 39.367
Local Time: 3:29 AM EDT ( 7:29 GMT) Lon: -75.083
Time Zone: US/Eastern Elev: 85 ft

Show me the last for .
Show Decoded

2018-10-17 02:54 METAR KMIV 170654Z AUTO 00000KT 10SM BKN046 OVC055 11/09 A3006 RMK AO2 SLP176
                 T01060094 =
2018-10-17 01:54 METAR KMIV 170554Z AUTO 00000KT 10SM BKN045 10/08 A3008 RMK AO2 SLP183 T01000078
                 10111 20094 56009 =
2018-10-16 23:54 METAR KMIV 170354Z AUTO 00000KT 10SM CLR 10/08 A3009 RMK AO2 SLP189 T01000083 =
2018-10-16 22:54 METAR KMIV 170254Z AUTO 26003KT 10SM CLR 10/08 A3010 RMK AO2 SLP192 T01000078
                 58002 =
2018-10-16 21:54 METAR KMIV 170154Z AUTO 00000KT 10SM CLR 09/08 A3011 RMK AO2 SLP196 T00940083 =
2018-10-16 20:54 METAR KMIV 170054Z AUTO 00000KT 10SM CLR 10/07 A3011 RMK AO2 SLP194 T01000072 =
2018-10-16 19:54 METAR KMIV 162354Z AUTO 00000KT 10SM CLR 09/08 A3011 RMK AO2 SLP194 T00940078
                 10150 20089 50000 =
2018-10-16 18:54 METAR KMIV 162254Z AUTO 00000KT 10SM CLR 10/07 A3011 RMK AO2 SLP194 T01000072 =
2018-10-16 17:54 METAR KMIV 162154Z AUTO 30003KT 10SM CLR 13/04 A3012 RMK AO2 SLP197 T01280044 =
2018-10-16 16:54 METAR KMIV 162054Z AUTO 25004KT 10SM CLR 14/04 A3011 RMK AO2 SLP194 T01390039
                 56012 =
2018-10-16 15:54 METAR KMIV 161954Z AUTO 30010KT 10SM CLR 15/03 A3011 RMK AO2 SLP196 T01500028 =
2018-10-16 14:54 METAR KMIV 161854Z AUTO 28010KT 10SM CLR 15/03 A3012 RMK AO2 SLP199 T01500033 =
2018-10-16 13:54 METAR KMIV 161754Z AUTO 30007KT 10SM CLR 14/03 A3014 RMK AO2 SLP206 T01390028
                 10156 20117 58017 =
2018-10-16 12:54 METAR KMIV 161654Z AUTO 30007KT 10SM CLR 14/03 A3017 RMK AO2 SLP217 T01440033 =
2018-10-16 11:54 METAR KMIV 161554Z AUTO 34005KT 10SM CLR 13/04 A3019 RMK AO2 SLP223 T01330039 =
2018-10-16 10:54 METAR KMIV 161454Z AUTO 36010KT 10SM CLR 13/03 A3019 RMK AO2 SLP222 T01330028
                 50009 =
2018-10-16 09:54 METAR KMIV 161354Z AUTO 32012G17KT 10SM CLR 12/02 A3020 RMK AO2 SLP226 T01220022
                 =
2018-10-16 08:54 METAR KMIV 161254Z AUTO 35009KT 10SM CLR 13/06 A3019 RMK AO2 SLP220 T01280056 =
2018-10-16 07:54 METAR KMIV 161154Z AUTO 33007KT 10SM CLR 12/05 A3017 RMK AO2 SLP214 60000 70027
                 T01170050 10156 20117 53024 =
2018-10-16 06:54 METAR KMIV 161054Z AUTO 32009KT 10SM BKN120 12/04 A3013 RMK AO2 SLP203 T01220044
                 =
2018-10-16 05:54 METAR KMIV 160954Z AUTO 32008KT 10SM FEW120 13/05 A3012 RMK AO2 SLP197 T01330050
                 =
2018-10-16 04:54 METAR KMIV 160854Z AUTO 32009G17KT 10SM OVC110 14/06 A3009 RMK AO2 SLP189 60000
                 T01390061 51025 =
2018-10-16 03:54 METAR KMIV 160754Z AUTO 32009KT 10SM BKN065 OVC090 14/09 A3007 RMK AO2 SLP180
                 T01440089 =

Support USWX by starting your Amazon purchase here.